Time;durP1;ratioP1;P1;durP2;ratioP2;P2;SDS_P1;SDS_P2;PMS_P1;PMS_P2;Temp;Humidity;BMP_temperature;BMP_pressure;BME280_temperature;BME280_humidity;BME280_pressure;Samples;Min_cycle;Max_cycle;Signal;HPM_P1;HPM_P2
2022/07/03 00:00:37;;;;;;;11.48;8.98;;;;;;;15.49;89.46;101710.22;4988895;28;20049;-87
2022/07/03 00:03:02;;;;;;;12.35;9.63;;;;;;;15.42;89.71;101702.53;4990230;28;20057;-87
2022/07/03 00:05:28;;;;;;;13.40;9.88;;;;;;;15.38;90.02;101706.16;4994091;28;20034;-87
2022/07/03 00:07:54;;;;;;;11.90;9.68;;;;;;;15.33;90.05;101709.81;5000271;28;20022;-87
2022/07/03 00:10:19;;;;;;;13.68;11.27;;;;;;;15.26;90.09;101711.75;4988585;28;20038;-87
2022/07/03 00:12:44;;;;;;;18.88;11.98;;;;;;;15.26;90.35;101713.50;4972125;28;20026;-87
2022/07/03 00:15:10;;;;;;;14.02;11.70;;;;;;;15.24;90.48;101710.06;4975557;28;20485;-86
2022/07/03 00:17:35;;;;;;;13.40;11.75;;;;;;;15.24;90.71;101705.72;4996677;28;20030;-87
2022/07/03 00:20:00;;;;;;;14.00;12.50;;;;;;;15.21;90.61;101702.34;4994484;28;20054;-86
2022/07/03 00:22:29;;;;;;;16.27;12.68;;;;;;;15.18;90.67;101702.41;4988709;28;20022;-86
2022/07/03 00:25:03;;;;;;;16.35;12.75;;;;;;;15.15;90.63;101702.53;4985202;28;20026;-87
2022/07/03 00:27:32;;;;;;;15.05;13.15;;;;;;;15.11;90.96;101704.34;4988391;28;20397;-86
2022/07/03 00:29:59;;;;;;;15.13;13.18;;;;;;;15.08;90.89;101703.59;4985039;28;20026;-87
2022/07/03 00:32:25;;;;;;;15.00;13.48;;;;;;;15.07;90.85;101714.94;4987759;28;20112;-87
2022/07/03 00:34:54;;;;;;;18.08;13.75;;;;;;;15.02;90.94;101718.53;4990009;28;20137;-87
2022/07/03 00:37:20;;;;;;;15.15;13.38;;;;;;;15.01;91.20;101727.25;4972269;28;20018;-87
2022/07/03 00:39:46;;;;;;;14.95;13.35;;;;;;;15.01;91.02;101715.97;4989179;28;20061;-79
2022/07/03 00:42:12;;;;;;;15.07;13.48;;;;;;;15.03;91.20;101725.47;4991433;28;20116;-79
2022/07/03 00:44:48;;;;;;;15.63;12.85;;;;;;;15.03;88.94;101735.91;4977851;28;20394;-79
2022/07/03 00:47:14;;;;;;;16.17;12.68;;;;;;;15.09;90.89;101736.63;4990363;28;20022;-79
2022/07/03 00:49:43;;;;;;;17.00;14.48;;;;;;;15.14;90.32;101738.22;4991458;28;20157;-79
2022/07/03 00:52:11;;;;;;;19.50;14.13;;;;;;;15.20;90.39;101738.06;4987110;28;20441;-79
2022/07/03 00:54:41;;;;;;;17.33;14.05;;;;;;;15.22;90.69;101738.84;4970257;28;20104;-79
2022/07/03 00:57:15;;;;;;;16.40;14.13;;;;;;;15.21;89.68;101726.72;4990477;28;20029;-79
2022/07/03 00:59:40;;;;;;;17.30;13.73;;;;;;;15.24;88.47;101723.13;4991884;28;20038;-79
2022/07/03 01:02:08;;;;;;;16.52;13.93;;;;;;;15.28;89.57;101730.00;4992271;28;20098;-79
2022/07/03 01:04:55;;;;;;;15.38;13.65;;;;;;;15.31;89.36;101729.91;4981466;28;20529;-79
2022/07/03 01:07:48;;;;;;;16.10;13.55;;;;;;;15.35;89.37;101729.75;4985069;28;20033;-79
2022/07/03 01:10:17;;;;;;;14.70;12.52;;;;;;;15.37;89.43;101734.94;4988582;28;20046;-87
2022/07/03 01:12:45;;;;;;;17.05;13.90;;;;;;;15.34;89.62;101724.59;4993748;28;20096;-87
2022/07/03 01:15:16;;;;;;;18.83;13.18;;;;;;;15.31;89.11;101725.53;4998736;28;20029;-87
2022/07/03 01:17:52;;;;;;;16.98;12.82;;;;;;;15.28;89.45;101723.03;4990861;28;20140;-87
2022/07/03 01:20:24;;;;;;;15.95;12.80;;;;;;;15.25;89.77;101720.47;4998429;28;20060;-87
2022/07/03 01:22:57;;;;;;;17.48;12.55;;;;;;;15.20;89.06;101724.13;4989939;28;20026;-88
2022/07/03 01:25:38;;;;;;;17.80;12.33;;;;;;;15.20;88.70;101727.59;4992095;28;20054;-87
2022/07/03 01:28:06;;;;;;;16.20;12.90;;;;;;;15.17;89.62;101732.91;4973539;28;20297;-88
2022/07/03 01:30:35;;;;;;;16.48;13.27;;;;;;;15.17;90.20;101729.44;4972795;28;20093;-88
2022/07/03 01:33:09;;;;;;;16.58;13.00;;;;;;;15.16;89.75;101731.19;4986071;28;20026;-87
2022/07/03 01:36:05;;;;;;;16.45;13.02;;;;;;;15.09;88.71;101729.66;4983618;28;20025;-88
2022/07/03 01:38:33;;;;;;;15.35;13.05;;;;;;;15.08;90.11;101732.31;4978243;28;20050;-87
2022/07/03 01:41:01;;;;;;;16.95;13.25;;;;;;;15.01;89.86;101727.25;4976435;28;20027;-87
2022/07/03 01:43:32;;;;;;;17.55;13.98;;;;;;;15.06;89.96;101739.34;4992527;28;20052;-86
2022/07/03 01:46:00;;;;;;;17.65;13.43;;;;;;;15.01;90.36;101735.06;4993900;28;20023;-88
2022/07/03 01:48:28;;;;;;;21.15;14.30;;;;;;;14.96;90.05;101729.13;4986095;28;20496;-88
2022/07/03 01:50:55;;;;;;;16.88;13.45;;;;;;;14.92;89.69;101724.91;4988857;28;20034;-87
2022/07/03 01:53:24;;;;;;;18.63;14.10;;;;;;;14.86;90.16;101726.84;4987459;28;20139;-87
2022/07/03 01:55:50;;;;;;;16.30;13.68;;;;;;;14.83;90.50;101725.16;4994125;28;20526;-87
2022/07/03 01:58:15;;;;;;;18.25;13.48;;;;;;;14.84;90.64;101728.63;4987344;28;20039;-87
2022/07/03 02:01:02;;;;;;;16.27;13.55;;;;;;;14.83;90.48;101729.50;4979475;28;20030;-87
2022/07/03 02:03:31;;;;;;;17.35;13.48;;;;;;;14.78;90.77;101728.78;4988568;28;20574;-87
2022/07/03 02:06:02;;;;;;;17.42;12.75;;;;;;;14.78;90.80;101726.19;4995691;28;20034;-87
2022/07/03 02:08:36;;;;;;;18.60;13.23;;;;;;;14.74;90.69;101717.56;4974307;28;20046;-87
2022/07/03 02:11:13;;;;;;;17.20;13.55;;;;;;;14.72;90.60;101729.81;4981933;28;20030;-87
2022/07/03 02:13:59;;;;;;;17.02;12.93;;;;;;;14.70;90.48;101725.53;4968118;28;20394;-87
2022/07/03 02:16:26;;;;;;;19.20;12.88;;;;;;;14.68;90.76;101720.34;4989570;28;20088;-87
2022/07/03 02:19:02;;;;;;;16.00;12.63;;;;;;;14.64;90.32;101718.72;4985248;28;20054;-87
2022/07/03 02:21:30;;;;;;;17.55;12.57;;;;;;;14.57;90.38;101711.94;4990411;28;20034;-87
2022/07/03 02:24:22;;;;;;;17.48;12.18;;;;;;;14.56;89.99;101716.31;4988081;28;20033;-87
2022/07/03 02:26:55;;;;;;;17.38;12.35;;;;;;;14.53;90.44;101715.53;4987198;28;20041;-87
2022/07/03 02:29:30;;;;;;;17.45;12.60;;;;;;;14.50;90.85;101708.63;4985991;28;20223;-87
2022/07/03 02:31:59;;;;;;;15.82;12.38;;;;;;;14.45;90.59;101709.66;4988836;28;20034;-87
2022/07/03 02:34:27;;;;;;;15.43;12.50;;;;;;;14.38;90.79;101711.56;4970316;28;20027;-87
2022/07/03 02:37:03;;;;;;;16.92;11.90;;;;;;;14.37;90.77;101719.41;4989094;28;20109;-87
2022/07/03 02:39:43;;;;;;;16.38;11.80;;;;;;;14.35;90.86;101715.97;4988496;28;20030;-87
2022/07/03 02:42:34;;;;;;;15.35;11.70;;;;;;;14.31;91.20;101714.34;4990030;28;20089;-87
2022/07/03 02:45:03;;;;;;;14.55;11.38;;;;;;;14.28;91.33;101715.25;4982340;28;20027;-87
2022/07/03 02:47:43;;;;;;;15.50;11.43;;;;;;;14.25;90.67;101715.34;4986413;28;20049;-88
2022/07/03 02:50:11;;;;;;;18.02;11.13;;;;;;;14.21;90.72;101717.16;4989096;28;20029;-87
2022/07/03 02:52:43;;;;;;;16.23;10.77;;;;;;;14.18;90.46;101719.88;4992287;28;20397;-87
2022/07/03 02:55:11;;;;;;;15.18;10.82;;;;;;;14.15;91.40;101714.72;4990065;28;20104;-87
2022/07/03 02:57:40;;;;;;;15.02;10.85;;;;;;;14.08;91.28;101715.75;4974618;28;20045;-87
2022/07/03 03:00:09;;;;;;;14.95;10.48;;;;;;;14.09;91.26;101721.81;4990489;28;20030;-87
2022/07/03 03:02:40;;;;;;;15.55;10.85;;;;;;;14.08;91.44;101722.72;4987937;28;20038;-87
2022/07/03 03:05:25;;;;;;;16.05;10.77;;;;;;;14.04;91.16;101724.56;4976934;28;20093;-87
2022/07/03 03:08:27;;;;;;;15.20;10.32;;;;;;;14.00;90.41;101715.06;4973388;28;20027;-87
2022/07/03 03:11:01;;;;;;;15.25;10.70;;;;;;;13.95;91.76;101723.91;4983511;28;20026;-87
2022/07/03 03:13:31;;;;;;;17.58;11.43;;;;;;;13.91;91.57;101712.69;4993090;28;20133;-86
2022/07/03 03:16:11;;;;;;;18.17;11.73;;;;;;;13.89;91.77;101711.00;4990241;28;20109;-87
2022/07/03 03:18:41;;;;;;;18.20;12.02;;;;;;;13.86;92.26;101722.34;4984911;28;20050;-87
2022/07/03 03:21:10;;;;;;;17.23;11.63;;;;;;;13.81;92.28;101716.41;4993087;28;20069;-87
2022/07/03 03:23:43;;;;;;;18.73;12.07;;;;;;;13.79;92.48;101720.78;4992279;28;20030;-87
2022/07/03 03:26:11;;;;;;;22.90;12.60;;;;;;;13.77;92.58;101719.97;4985290;28;20034;-87
2022/07/03 03:28:36;;;;;;;18.77;12.32;;;;;;;13.75;92.80;101721.75;4988490;28;20090;-86
2022/07/03 03:31:06;;;;;;;21.42;12.30;;;;;;;13.73;93.25;101728.75;4989204;28;20061;-87
2022/07/03 03:33:32;;;;;;;23.05;12.88;;;;;;;13.74;93.35;101728.72;4988651;28;20030;-87
2022/07/03 03:35:58;;;;;;;21.17;12.60;;;;;;;13.75;93.99;101726.97;4992680;28;20030;-87
2022/07/03 03:38:23;;;;;;;20.98;12.95;;;;;;;13.72;94.26;101727.03;4989484;28;20039;-87
2022/07/03 03:40:49;;;;;;;24.35;13.60;;;;;;;13.71;94.29;101734.00;4991286;28;20424;-87
2022/07/03 03:43:15;;;;;;;21.92;13.77;;;;;;;13.72;95.07;101730.50;4990884;28;20030;-87
2022/07/03 03:45:40;;;;;;;21.65;13.63;;;;;;;13.75;95.21;101729.56;4975393;28;20030;-87
2022/07/03 03:48:06;;;;;;;22.42;13.77;;;;;;;13.77;95.35;101730.41;4991099;28;20026;-87
2022/07/03 03:50:31;;;;;;;22.92;13.02;;;;;;;13.75;95.73;101737.41;4974585;28;20023;-86
2022/07/03 03:52:59;;;;;;;20.65;12.68;;;;;;;13.80;95.67;101740.75;4990871;28;20038;-87
2022/07/03 03:55:25;;;;;;;19.95;12.50;;;;;;;13.78;95.47;101739.94;4974577;28;20058;-87
2022/07/03 03:57:50;;;;;;;16.77;12.30;;;;;;;13.80;95.25;101744.22;4986346;28;20056;-87
2022/07/03 04:00:17;;;;;;;22.52;14.15;;;;;;;13.84;95.30;101742.41;4989310;28;20045;-86
2022/07/03 04:02:42;;;;;;;20.60;13.52;;;;;;;13.90;95.25;101744.00;4986065;28;20538;-87
2022/07/03 04:05:08;;;;;;;19.23;12.70;;;;;;;13.90;95.19;101739.66;4990311;28;20030;-87
2022/07/03 04:07:33;;;;;;;19.42;13.30;;;;;;;13.92;95.00;101730.03;4990258;28;20070;-87
2022/07/03 04:09:58;;;;;;;17.98;13.25;;;;;;;13.97;95.36;101728.19;4991600;28;20046;-87
2022/07/03 04:12:24;;;;;;;19.15;13.00;;;;;;;13.99;95.11;101736.81;4988435;28;20027;-86
2022/07/03 04:14:49;;;;;;;18.95;12.73;;;;;;;14.02;95.13;101735.91;4991325;28;20049;-86
2022/07/03 04:17:15;;;;;;;18.40;12.48;;;;;;;14.06;95.43;101738.38;4989880;28;20041;-87
2022/07/03 04:19:40;;;;;;;18.88;12.07;;;;;;;14.02;93.96;101721.13;4970640;28;20128;-86
2022/07/03 04:22:09;;;;;;;17.90;11.98;;;;;;;14.02;94.83;101736.75;4990420;28;20456;-87
2022/07/03 04:24:37;;;;;;;17.02;11.95;;;;;;;14.02;94.99;101736.75;4984564;28;21284;-87
2022/07/03 04:27:03;;;;;;;17.75;11.70;;;;;;;14.00;94.93;101727.25;4988997;28;20508;-86
2022/07/03 04:29:29;;;;;;;19.58;12.07;;;;;;;14.04;95.26;101729.75;4987662;28;20030;-86
2022/07/03 04:31:54;;;;;;;18.52;11.55;;;;;;;14.05;95.33;101746.28;4990322;28;20033;-87
2022/07/03 04:34:19;;;;;;;15.93;11.07;;;;;;;14.02;95.28;101741.97;4988420;28;20485;-87
2022/07/03 04:36:45;;;;;;;17.60;11.77;;;;;;;14.02;95.24;101736.75;4988551;28;20548;-87
2022/07/03 04:39:10;;;;;;;16.80;11.57;;;;;;;14.04;95.03;101745.41;4990242;28;20324;-86
2022/07/03 04:41:35;;;;;;;17.25;11.68;;;;;;;14.06;95.08;101745.34;4989491;28;20219;-87
2022/07/03 04:44:00;;;;;;;21.48;10.90;;;;;;;14.08;94.89;101744.44;4972930;28;20027;-87
2022/07/03 04:46:26;;;;;;;17.45;11.13;;;;;;;14.11;95.22;101752.19;4973789;28;20042;-87
2022/07/03 04:48:51;;;;;;;16.17;10.95;;;;;;;14.19;95.33;101759.84;4972306;28;20041;-87
2022/07/03 04:51:16;;;;;;;15.90;11.18;;;;;;;14.28;96.30;101749.16;4984489;28;20544;-87
2022/07/03 04:53:42;;;;;;;15.75;10.40;;;;;;;14.41;95.37;101734.09;4987755;28;20030;-87
2022/07/03 04:56:07;;;;;;;12.20;8.60;;;;;;;14.59;92.57;101751.91;4969937;28;20030;-87
2022/07/03 04:58:32;;;;;;;11.88;8.20;;;;;;;14.79;92.25;101751.38;4981635;28;20041;-86
2022/07/03 05:00:58;;;;;;;13.45;7.95;;;;;;;14.92;90.35;101752.78;4986455;28;20396;-87
2022/07/03 05:03:23;;;;;;;12.05;7.05;;;;;;;15.03;90.12;101750.72;4987749;28;20022;-87
2022/07/03 05:05:48;;;;;;;10.63;7.28;;;;;;;15.14;90.41;101746.06;4991441;28;20022;-87
2022/07/03 05:08:14;;;;;;;12.07;6.30;;;;;;;15.19;89.71;101746.78;4989686;28;20018;-87
2022/07/03 05:10:39;;;;;;;12.73;5.97;;;;;;;15.25;88.64;101751.84;4989444;28;20340;-87
2022/07/03 05:13:05;;;;;;;12.98;6.38;;;;;;;15.28;89.73;101753.50;4987270;28;20026;-87
2022/07/03 05:15:30;;;;;;;9.43;5.90;;;;;;;15.27;88.50;101757.03;4973670;28;20034;-86
2022/07/03 05:17:55;;;;;;;13.52;6.97;;;;;;;15.30;88.78;101757.78;4988897;28;20385;-87
2022/07/03 05:20:23;;;;;;;10.57;6.90;;;;;;;15.37;87.10;101758.44;4969290;28;20041;-87
2022/07/03 05:22:49;;;;;;;11.40;6.72;;;;;;;15.37;86.07;101754.09;4972570;28;20339;-87
2022/07/03 05:25:15;;;;;;;10.48;6.85;;;;;;;15.40;87.45;101768.81;4969840;28;20113;-88
2022/07/03 05:27:40;;;;;;;13.45;7.07;;;;;;;15.41;85.70;101774.00;4969932;28;20131;-88
2022/07/03 05:30:06;;;;;;;10.40;7.10;;;;;;;15.43;84.66;101763.50;4972612;28;20034;-87
2022/07/03 05:32:31;;;;;;;12.02;7.15;;;;;;;15.50;87.66;101766.78;4967510;28;20302;-88
2022/07/03 05:34:57;;;;;;;11.98;6.93;;;;;;;15.58;86.06;101767.44;4977953;28;20374;-87
2022/07/03 05:37:22;;;;;;;13.53;7.10;;;;;;;15.65;84.73;101766.38;4970396;28;20405;-87
2022/07/03 05:39:47;;;;;;;12.15;6.93;;;;;;;15.70;83.93;101767.94;4971125;28;20301;-87
2022/07/03 05:42:13;;;;;;;11.10;6.82;;;;;;;15.73;83.60;101764.38;4965521;28;20489;-87
2022/07/03 05:44:38;;;;;;;11.73;6.45;;;;;;;15.72;83.34;101768.75;4977663;28;20110;-87
2022/07/03 05:47:04;;;;;;;12.95;6.95;;;;;;;15.67;82.30;101765.44;4953101;28;20019;-87
2022/07/03 05:49:29;;;;;;;11.13;6.47;;;;;;;15.69;84.79;101758.38;4970566;28;20106;-86
2022/07/03 05:51:59;;;;;;;11.30;6.70;;;;;;;15.72;83.54;101771.38;4972854;28;20023;-87
2022/07/03 05:54:25;;;;;;;12.48;7.07;;;;;;;15.74;82.93;101768.72;4960946;28;20034;-87
2022/07/03 05:56:50;;;;;;;13.48;7.20;;;;;;;15.76;82.93;101772.97;4966024;28;20034;-87
2022/07/03 05:59:15;;;;;;;18.20;7.60;;;;;;;15.79;82.39;101777.28;4971324;28;20037;-87
2022/07/03 06:01:41;;;;;;;12.68;7.28;;;;;;;15.82;82.50;101766.72;4978578;28;20292;-87
2022/07/03 06:04:06;;;;;;;12.53;7.53;;;;;;;15.86;85.31;101768.34;4970944;28;20035;-87
2022/07/03 06:06:31;;;;;;;16.73;7.57;;;;;;;15.90;82.86;101785.63;4969679;28;20281;-86
2022/07/03 06:08:56;;;;;;;15.13;7.50;;;;;;;15.96;82.80;101776.78;4983649;28;20508;-87
2022/07/03 06:11:22;;;;;;;14.95;7.57;;;;;;;16.04;83.91;101780.84;4981635;28;20285;-87
2022/07/03 06:13:47;;;;;;;14.93;7.15;;;;;;;16.09;83.21;101776.34;4966068;28;20038;-87
2022/07/03 06:16:13;;;;;;;12.43;6.70;;;;;;;16.17;83.50;101776.09;4975614;28;20050;-87
2022/07/03 06:18:38;;;;;;;13.95;7.75;;;;;;;16.26;83.03;101781.00;4975386;28;20050;-88
2022/07/03 06:21:03;;;;;;;12.57;6.90;;;;;;;16.31;82.90;101784.31;4972741;28;20125;-88
2022/07/03 06:23:29;;;;;;;13.40;7.05;;;;;;;16.39;84.50;101790.19;4969308;28;20069;-86
2022/07/03 06:25:54;;;;;;;11.23;7.13;;;;;;;16.46;83.65;101788.22;4981021;28;20478;-88
2022/07/03 06:28:19;;;;;;;13.27;6.85;;;;;;;16.52;82.58;101794.09;4977400;28;20447;-87
2022/07/03 06:30:45;;;;;;;11.07;6.35;;;;;;;16.61;82.89;101797.34;4980778;28;20030;-88
2022/07/03 06:33:10;;;;;;;12.88;6.32;;;;;;;16.75;82.65;101789.91;4972422;28;20485;-89
2022/07/03 06:35:35;;;;;;;8.15;5.43;;;;;;;16.88;82.54;101792.03;4972139;28;20328;-88
2022/07/03 06:38:02;;;;;;;12.15;5.57;;;;;;;17.01;81.64;101786.38;4972664;28;20054;-88
2022/07/03 06:40:28;;;;;;;9.73;4.93;;;;;;;17.08;82.41;101793.09;4973586;28;20562;-87
2022/07/03 06:42:53;;;;;;;8.85;5.03;;;;;;;17.14;82.06;101783.25;4975846;28;20039;-88
2022/07/03 06:45:18;;;;;;;11.32;4.78;;;;;;;17.25;82.13;101786.38;4983576;28;20065;-88
2022/07/03 06:47:43;;;;;;;14.02;5.60;;;;;;;17.40;80.37;101782.31;4972184;28;20037;-88
2022/07/03 06:50:09;;;;;;;11.57;5.03;;;;;;;17.56;81.42;101779.97;4971062;28;20030;-88
2022/07/03 06:52:34;;;;;;;11.50;4.57;;;;;;;17.65;80.63;101777.91;4971688;28;20026;-88
2022/07/03 06:55:00;;;;;;;12.00;4.25;;;;;;;17.77;80.60;101789.69;4970903;28;20521;-88
2022/07/03 06:57:25;;;;;;;13.68;4.57;;;;;;;17.85;79.66;101781.53;4972248;28;20030;-88
2022/07/03 06:59:50;;;;;;;9.48;4.32;;;;;;;17.88;80.05;101782.25;4978752;28;20030;-88
2022/07/03 07:02:16;;;;;;;11.50;4.78;;;;;;;17.95;79.97;101783.72;4984785;28;20568;-88
2022/07/03 07:04:41;;;;;;;9.20;4.30;;;;;;;18.02;80.18;101790.44;4972679;28;20030;-88
2022/07/03 07:07:06;;;;;;;10.10;4.40;;;;;;;18.12;79.73;101790.94;4972475;28;20293;-88
2022/07/03 07:09:31;;;;;;;8.15;4.60;;;;;;;18.16;79.21;101788.13;4973116;28;20369;-88
2022/07/03 07:11:57;;;;;;;8.00;4.57;;;;;;;18.27;78.63;101790.31;4972456;28;20030;-88
2022/07/03 07:14:22;;;;;;;8.95;4.85;;;;;;;18.41;77.77;101792.38;4974269;28;20043;-88
2022/07/03 07:16:48;;;;;;;10.23;4.57;;;;;;;18.52;77.16;101792.78;4972899;28;20046;-88
2022/07/03 07:19:13;;;;;;;11.18;4.82;;;;;;;18.61;78.27;101787.19;4978774;28;20423;-88
2022/07/03 07:21:38;;;;;;;9.20;4.65;;;;;;;18.74;76.94;101792.78;4974679;28;20090;-87
2022/07/03 07:24:04;;;;;;;6.82;4.22;;;;;;;18.84;77.03;101792.31;4988786;28;20037;-88
2022/07/03 07:26:29;;;;;;;11.15;4.88;;;;;;;18.87;77.65;101789.56;4997847;28;20026;-89
2022/07/03 07:28:55;;;;;;;9.17;4.00;;;;;;;18.97;76.41;101782.13;4999674;28;20076;-89
2022/07/03 07:31:20;;;;;;;6.93;3.70;;;;;;;19.08;76.57;101787.78;4992636;28;20366;-89
2022/07/03 07:33:45;;;;;;;9.07;3.67;;;;;;;19.18;76.02;101790.84;4992226;28;20124;-88
2022/07/03 07:36:11;;;;;;;7.10;3.53;;;;;;;19.33;73.24;101795.41;4996030;28;20481;-88
2022/07/03 07:38:36;;;;;;;6.68;3.33;;;;;;;19.49;71.96;101795.63;4999407;28;20296;-88
2022/07/03 07:41:01;;;;;;;7.23;2.80;;;;;;;19.64;71.94;101797.56;4992978;28;20026;-88
2022/07/03 07:43:27;;;;;;;5.25;2.28;;;;;;;19.81;71.05;101802.00;4991758;28;20389;-89
2022/07/03 07:45:52;;;;;;;7.18;2.60;;;;;;;20.04;70.71;101809.69;4991609;28;20500;-89
2022/07/03 07:48:18;;;;;;;7.00;3.20;;;;;;;20.36;68.02;101816.06;4973251;28;20077;-87
2022/07/03 07:50:44;;;;;;;7.22;3.33;;;;;;;21.08;66.29;101800.97;4984054;28;20120;-89
2022/07/03 07:53:09;;;;;;;9.25;3.60;;;;;;;22.30;64.50;101803.09;4989587;28;20121;-88
2022/07/03 07:55:34;;;;;;;6.85;3.85;;;;;;;23.43;60.37;101799.81;4989628;28;20178;-89
2022/07/03 07:58:00;;;;;;;8.05;3.10;;;;;;;24.39;58.20;101799.81;4990927;28;20025;-90
2022/07/03 08:00:25;;;;;;;4.03;2.55;;;;;;;25.29;56.80;101801.66;4989897;28;20034;-89
2022/07/03 08:05:37;;;;;;;5.65;2.55;;;;;;;26.54;50.43;101797.88;4985111;28;20046;-88
2022/07/03 08:08:10;;;;;;;5.03;2.58;;;;;;;27.02;50.94;101803.94;4989395;28;20034;-88
2022/07/03 08:11:01;;;;;;;7.47;2.47;;;;;;;27.67;49.10;101804.09;4991634;28;20485;-89
2022/07/03 08:13:27;;;;;;;5.07;3.10;;;;;;;27.80;46.56;101795.94;4988210;28;20034;-90
2022/07/03 08:15:52;;;;;;;6.90;3.13;;;;;;;27.86;47.41;101804.28;4991842;28;20041;-89
2022/07/03 08:18:17;;;;;;;7.20;3.22;;;;;;;27.79;46.77;101796.91;4992415;28;20502;-89
2022/07/03 08:20:43;;;;;;;11.20;3.63;;;;;;;27.36;47.94;101802.16;4991058;28;20139;-90
2022/07/03 08:23:08;;;;;;;6.38;3.40;;;;;;;27.08;47.71;101798.13;4997345;28;20383;-89
2022/07/03 08:25:33;;;;;;;6.47;3.00;;;;;;;26.79;44.98;101804.81;4975243;28;20025;-89
2022/07/03 08:27:59;;;;;;;4.83;2.97;;;;;;;26.51;47.83;101812.25;4981185;28;20032;-89
2022/07/03 08:30:25;;;;;;;6.22;2.95;;;;;;;26.29;50.31;101798.84;4990100;28;20297;-89
2022/07/03 08:32:54;;;;;;;4.88;2.55;;;;;;;26.32;51.56;101807.47;4991732;28;20444;-89
2022/07/03 08:35:19;;;;;;;6.80;2.83;;;;;;;26.10;51.39;101809.97;4986128;28;20117;-89
2022/07/03 08:37:47;;;;;;;6.82;2.70;;;;;;;26.08;51.01;101808.38;4987266;28;20369;-89
2022/07/03 08:40:13;;;;;;;5.57;3.25;;;;;;;26.22;49.78;101816.19;4974398;28;20065;-88
2022/07/03 08:42:45;;;;;;;7.32;3.22;;;;;;;26.12;49.28;101810.72;4974904;28;20073;-88
2022/07/03 08:45:15;;;;;;;4.22;2.55;;;;;;;26.19;50.76;101803.13;4988068;28;20457;-89
2022/07/03 08:47:42;;;;;;;4.90;2.60;;;;;;;26.16;52.03;101804.19;4989360;28;20038;-89
2022/07/03 08:50:09;;;;;;;8.15;2.92;;;;;;;26.20;50.78;101795.03;4974188;28;20023;-89
2022/07/03 08:52:35;;;;;;;7.85;3.47;;;;;;;26.22;49.28;101798.41;4972816;28;20038;-88
2022/07/03 08:55:02;;;;;;;7.43;3.40;;;;;;;26.27;51.56;101784.84;4990881;28;20022;-89
2022/07/03 08:57:31;;;;;;;6.38;3.95;;;;;;;26.38;48.21;101800.81;4972747;28;20026;-87
2022/07/03 08:59:58;;;;;;;8.23;3.40;;;;;;;26.29;50.47;101796.19;4989656;28;20034;-88
2022/07/03 09:02:25;;;;;;;6.22;3.22;;;;;;;26.32;47.86;101798.63;4990279;28;20062;-89
2022/07/03 09:04:50;;;;;;;4.57;2.60;;;;;;;26.25;49.95;101800.03;4989130;28;20034;-88
2022/07/03 09:07:19;;;;;;;4.00;1.90;;;;;;;26.24;45.08;101801.84;4989649;28;20029;-89
2022/07/03 09:09:45;;;;;;;4.13;2.25;;;;;;;26.12;47.12;101805.41;4991206;28;20301;-88
2022/07/03 09:12:12;;;;;;;3.45;2.00;;;;;;;26.10;48.45;101788.69;4987128;28;20034;-89
2022/07/03 09:14:37;;;;;;;6.18;3.03;;;;;;;26.08;45.78;101797.75;4974277;28;20105;-87
2022/07/03 09:17:05;;;;;;;5.47;2.67;;;;;;;26.08;49.45;101789.75;4990323;28;20117;-89
2022/07/03 09:19:45;;;;;;;5.63;3.20;;;;;;;26.10;49.68;101798.47;4986508;28;20393;-89
2022/07/03 09:22:30;;;;;;;5.43;3.13;;;;;;;26.18;49.01;101804.09;4971751;28;20023;-89
2022/07/03 09:25:13;;;;;;;4.30;2.53;;;;;;;26.18;48.37;101804.94;4975070;28;20503;-88
2022/07/03 09:27:59;;;;;;;4.78;3.10;;;;;;;26.16;50.38;101798.03;4971771;28;20516;-89
2022/07/03 09:30:26;;;;;;;6.22;3.20;;;;;;;26.18;47.28;101814.72;4963835;28;20069;-89
2022/07/03 09:32:52;;;;;;;5.30;3.22;;;;;;;26.09;46.85;101807.41;4961961;28;20046;-89
2022/07/03 09:35:25;;;;;;;7.03;3.70;;;;;;;25.70;46.61;101805.84;4971781;28;20035;-87
2022/07/03 09:38:02;;;;;;;5.50;3.55;;;;;;;25.34;49.84;101799.50;4971745;28;20105;-87
2022/07/03 09:40:52;;;;;;;5.47;3.20;;;;;;;25.21;50.27;101806.63;4969901;28;20142;-89
2022/07/03 09:43:28;;;;;;;4.35;2.40;;;;;;;25.31;48.65;101812.16;4971529;28;20058;-89
2022/07/03 09:45:57;;;;;;;3.70;2.45;;;;;;;25.43;47.66;101816.59;4976238;28;20027;-89
2022/07/03 09:48:33;;;;;;;4.65;2.90;;;;;;;25.32;46.69;101821.78;4975196;28;20023;-88
2022/07/03 09:51:25;;;;;;;6.63;3.40;;;;;;;25.02;48.75;101823.00;4969776;28;20109;-89
2022/07/03 09:53:55;;;;;;;5.15;2.78;;;;;;;25.13;48.63;101827.53;4971084;28;20056;-87
2022/07/03 09:56:23;;;;;;;6.00;3.80;;;;;;;25.07;48.50;101820.88;4970097;28;20131;-88
2022/07/03 09:59:09;;;;;;;4.63;3.60;;;;;;;25.49;49.69;101817.03;4966240;28;20038;-90
2022/07/03 10:01:43;;;;;;;5.78;4.82;;;;;;;25.64;48.08;101825.75;4968405;28;20026;-89
2022/07/03 10:04:22;;;;;;;5.82;3.67;;;;;;;25.74;49.06;101823.25;4974347;28;20044;-89
2022/07/03 10:06:55;;;;;;;7.25;5.32;;;;;;;25.72;48.09;101823.38;4975175;28;20530;-88
2022/07/03 10:09:27;;;;;;;5.70;5.20;;;;;;;25.53;50.37;101821.13;4974826;28;20105;-88
2022/07/03 10:11:54;;;;;;;8.98;6.20;;;;;;;25.63;48.58;101812.56;4981439;28;20285;-88
2022/07/03 10:14:22;;;;;;;8.40;6.63;;;;;;;25.55;46.88;101832.50;4971118;28;20046;-87
2022/07/03 10:16:48;;;;;;;7.38;5.13;;;;;;;25.23;49.88;101828.63;4967498;28;20525;-88
2022/07/03 10:19:22;;;;;;;6.40;5.00;;;;;;;24.92;50.32;101821.91;4986715;28;20058;-87
2022/07/03 10:21:52;;;;;;;6.05;4.68;;;;;;;24.97;48.08;101829.56;4981105;28;20015;-88
2022/07/03 10:24:20;;;;;;;5.53;3.80;;;;;;;25.05;50.03;101830.72;4972205;28;20035;-89
2022/07/03 10:26:47;;;;;;;6.97;4.25;;;;;;;25.24;48.13;101829.47;4976843;28;20018;-88
2022/07/03 10:29:15;;;;;;;6.85;4.10;;;;;;;25.15;49.58;101829.16;4978823;28;20029;-89
2022/07/03 10:31:44;;;;;;;5.40;4.10;;;;;;;25.26;49.21;101823.06;4968120;28;20027;-88
2022/07/03 10:34:10;;;;;;;7.20;3.90;;;;;;;25.53;49.42;101818.47;4980457;28;20058;-89
2022/07/03 10:36:37;;;;;;;5.30;3.72;;;;;;;25.77;49.23;101834.53;4994307;28;20397;-90
2022/07/03 10:39:05;;;;;;;4.82;3.70;;;;;;;25.77;50.48;101829.22;4977540;28;20030;-90
2022/07/03 10:47:40;;;;;;;6.47;4.65;;;;;;;25.50;46.41;101829.34;4973039;28;20046;-88
2022/07/03 10:50:17;;;;;;;6.18;4.10;;;;;;;25.17;49.79;101831.69;4974940;28;20018;-88
2022/07/03 10:52:43;;;;;;;5.75;4.00;;;;;;;25.43;49.44;101833.38;4973919;28;20106;-87
2022/07/03 10:55:10;;;;;;;5.90;3.95;;;;;;;25.54;47.75;101822.00;4972536;28;20029;-87
2022/07/03 10:57:37;;;;;;;6.20;5.15;;;;;;;25.53;47.69;101833.56;4974403;28;20062;-88
2022/07/03 11:00:05;;;;;;;4.63;3.50;;;;;;;25.32;47.94;101837.72;4974598;28;20023;-90
2022/07/03 11:02:34;;;;;;;5.82;2.70;;;;;;;24.94;47.79;101832.41;4961486;28;20023;-90
2022/07/03 11:04:59;;;;;;;3.90;3.00;;;;;;;24.71;45.78;101841.88;4972962;28;20026;-90
2022/07/03 11:07:33;;;;;;;5.53;2.97;;;;;;;24.89;46.42;101837.16;4974107;28;20015;-88
2022/07/03 11:10:10;;;;;;;4.43;2.70;;;;;;;25.05;47.77;101840.47;4984133;28;20286;-88
2022/07/03 11:13:03;;;;;;;5.53;2.70;;;;;;;24.89;48.08;101837.16;4974681;28;20410;-89
2022/07/03 11:15:33;;;;;;;5.45;2.72;;;;;;;24.58;50.68;101825.94;4981329;28;20019;-90
2022/07/03 11:18:11;;;;;;;4.35;3.10;;;;;;;24.65;48.46;101823.75;4976874;28;20035;-89
2022/07/03 11:20:42;;;;;;;6.22;2.80;;;;;;;24.60;48.15;101828.50;4973269;28;20050;-88
2022/07/03 11:23:18;;;;;;;3.65;2.15;;;;;;;24.49;46.33;101821.28;4970571;28;20149;-89
2022/07/03 11:25:45;;;;;;;3.10;2.30;;;;;;;24.32;45.63;101824.19;4963807;28;20655;-88
2022/07/03 11:28:32;;;;;;;3.58;2.15;;;;;;;24.37;47.65;101814.13;4956705;28;20037;-89
2022/07/03 11:33:45;;;;;;;4.70;3.03;;;;;;;24.37;49.24;101816.75;4972268;28;20125;-89
2022/07/03 11:36:31;;;;;;;4.35;2.72;;;;;;;24.39;47.16;101809.56;4973802;28;20113;-90